createdAt,value
2017-03-15T00:00:15.181Z,11.69
2017-03-15T00:00:55.719Z,11.75
2017-03-15T00:01:36.253Z,11.73
2017-03-15T00:02:16.790Z,11.73
2017-03-15T00:02:57.323Z,11.72
2017-03-15T00:03:37.858Z,11.69
2017-03-15T00:04:18.392Z,11.73
2017-03-15T00:04:58.925Z,11.72
2017-03-15T00:05:39.458Z,11.75
2017-03-15T00:06:19.993Z,11.78
2017-03-15T00:07:00.527Z,11.73
2017-03-15T00:07:41.059Z,11.73
2017-03-15T00:08:21.597Z,11.62
2017-03-15T00:09:02.125Z,11.7
2017-03-15T00:09:42.667Z,11.65
2017-03-15T00:10:23.198Z,11.7
2017-03-15T00:11:03.732Z,11.72
2017-03-15T00:11:44.264Z,11.73
2017-03-15T00:12:24.798Z,11.67
2017-03-15T00:13:05.322Z,11.6
2017-03-15T00:13:45.861Z,11.64
2017-03-15T00:14:26.444Z,11.64
2017-03-15T00:15:06.982Z,11.65
2017-03-15T00:15:47.515Z,11.61
2017-03-15T00:16:28.052Z,11.64
2017-03-15T00:17:08.585Z,11.55
2017-03-15T00:17:49.119Z,11.64
2017-03-15T00:18:29.644Z,11.61
2017-03-15T00:19:10.179Z,11.61
2017-03-15T00:19:50.715Z,11.6
2017-03-15T00:20:31.254Z,11.6
2017-03-15T00:21:11.793Z,11.62
2017-03-15T00:21:52.331Z,11.69
2017-03-15T00:22:32.869Z,11.72
2017-03-15T00:23:13.405Z,11.75
2017-03-15T00:23:53.939Z,11.73
2017-03-15T00:24:34.477Z,11.76
2017-03-15T00:25:15.007Z,11.69
2017-03-15T00:25:55.543Z,11.76
2017-03-15T00:26:36.076Z,11.75
2017-03-15T00:27:16.602Z,11.78
2017-03-15T00:27:57.133Z,11.76
2017-03-15T00:28:37.665Z,11.73
2017-03-15T00:29:18.200Z,11.7
2017-03-15T00:29:58.737Z,11.69
2017-03-15T00:30:39.264Z,11.73
2017-03-15T00:31:19.794Z,11.72
2017-03-15T00:32:00.326Z,11.73
2017-03-15T00:32:40.860Z,11.76
2017-03-15T00:33:21.393Z,11.64
2017-03-15T00:34:01.932Z,11.6
2017-03-15T00:34:42.457Z,11.62
2017-03-15T00:35:22.996Z,11.72
2017-03-15T00:36:03.537Z,11.78
2017-03-15T00:36:44.076Z,11.73
2017-03-15T00:37:24.615Z,11.67
2017-03-15T00:38:05.146Z,11.72
2017-03-15T00:38:45.678Z,11.69
2017-03-15T00:39:26.210Z,11.7
2017-03-15T00:40:06.747Z,11.7
2017-03-15T00:40:47.288Z,11.67
2017-03-15T00:41:27.817Z,11.72
2017-03-15T00:42:08.352Z,11.76
2017-03-15T00:42:48.882Z,11.7
2017-03-15T00:43:29.415Z,11.72
2017-03-15T00:44:09.961Z,11.7
2017-03-15T00:44:50.503Z,11.72
2017-03-15T00:45:31.036Z,11.7
2017-03-15T00:46:11.572Z,11.79
2017-03-15T00:46:52.108Z,11.76
2017-03-15T00:47:32.650Z,11.83
2017-03-15T00:48:13.185Z,11.78
2017-03-15T00:48:53.717Z,11.7
2017-03-15T00:49:34.256Z,11.76
2017-03-15T00:50:14.792Z,11.67
2017-03-15T00:50:55.326Z,11.7
2017-03-15T00:51:35.858Z,11.69
2017-03-15T00:52:16.400Z,11.75
2017-03-15T00:52:56.934Z,11.73
2017-03-15T00:53:37.467Z,11.75
2017-03-15T00:54:18.001Z,11.67
2017-03-15T00:54:58.538Z,11.72
2017-03-15T00:55:39.088Z,11.69
2017-03-15T00:56:19.608Z,11.69
2017-03-15T00:57:00.142Z,11.69
2017-03-15T00:57:40.674Z,11.78
2017-03-15T00:58:21.210Z,11.75
2017-03-15T00:59:01.744Z,11.67
2017-03-15T00:59:42.280Z,11.67
2017-03-15T01:00:22.815Z,11.79
2017-03-15T01:01:03.353Z,11.79
2017-03-15T01:01:43.886Z,11.76
2017-03-15T01:02:24.428Z,11.78
2017-03-15T01:03:04.957Z,11.73
2017-03-15T01:03:45.491Z,11.75
2017-03-15T01:04:26.021Z,11.75
2017-03-15T01:05:06.556Z,11.76
2017-03-15T01:05:47.094Z,11.75
2017-03-15T01:06:27.630Z,11.7
2017-03-15T01:07:08.165Z,11.64
2017-03-15T01:07:48.699Z,11.73
2017-03-15T01:08:29.240Z,11.7
2017-03-15T01:09:09.777Z,11.65
2017-03-15T01:09:50.318Z,11.64
2017-03-15T01:10:30.858Z,11.64
2017-03-15T01:11:11.393Z,11.58
2017-03-15T01:11:51.923Z,11.64
2017-03-15T01:12:32.460Z,11.7
2017-03-15T01:13:12.991Z,11.73
2017-03-15T01:13:53.525Z,11.65
2017-03-15T01:14:34.056Z,11.64
2017-03-15T01:15:14.587Z,11.78
2017-03-15T01:15:55.131Z,11.69
2017-03-15T01:16:35.656Z,11.64
2017-03-15T01:17:16.194Z,11.72
2017-03-15T01:17:56.729Z,11.82
2017-03-15T01:18:37.263Z,11.79
2017-03-15T01:19:17.798Z,11.76
2017-03-15T01:19:58.332Z,11.78
2017-03-15T01:20:38.864Z,11.78
2017-03-15T01:21:19.399Z,11.75
2017-03-15T01:21:59.932Z,11.79
2017-03-15T01:22:40.465Z,11.8
2017-03-15T01:23:21.002Z,11.75
2017-03-15T01:24:01.536Z,11.73
2017-03-15T01:24:42.070Z,11.73
2017-03-15T01:25:22.602Z,11.79
2017-03-15T01:26:03.139Z,11.86
2017-03-15T01:26:43.679Z,11.83
2017-03-15T01:27:24.213Z,11.8
2017-03-15T01:28:04.743Z,11.79
2017-03-15T01:28:45.277Z,11.8
2017-03-15T01:29:25.811Z,11.83
2017-03-15T01:30:06.354Z,11.79
2017-03-15T01:30:46.887Z,11.82
2017-03-15T01:31:27.424Z,11.78
2017-03-15T01:32:07.958Z,11.78
2017-03-15T01:32:48.499Z,11.73
2017-03-15T01:33:29.032Z,11.78
2017-03-15T01:34:09.567Z,11.7
2017-03-15T01:34:50.109Z,11.69
2017-03-15T01:35:30.644Z,11.73
2017-03-15T01:36:11.177Z,11.75
2017-03-15T01:36:51.710Z,11.73
2017-03-15T01:37:32.245Z,11.73
2017-03-15T01:38:12.780Z,11.6
2017-03-15T01:38:53.311Z,11.67
2017-03-15T01:39:33.845Z,11.64
2017-03-15T01:40:14.379Z,11.58
2017-03-15T01:40:54.916Z,11.67
2017-03-15T01:41:35.451Z,11.7
2017-03-15T01:42:15.985Z,11.65
2017-03-15T01:42:56.524Z,11.67
2017-03-15T01:43:37.065Z,11.75
2017-03-15T01:44:17.597Z,11.7
2017-03-15T01:44:58.134Z,11.75
2017-03-15T01:45:38.671Z,11.76
2017-03-15T01:46:19.209Z,11.78
2017-03-15T01:46:59.745Z,11.7
2017-03-15T01:47:40.280Z,11.69
2017-03-15T01:48:20.816Z,11.7
2017-03-15T01:49:01.352Z,11.76
2017-03-15T01:49:41.886Z,11.73
2017-03-15T01:50:22.422Z,11.8
2017-03-15T01:51:02.955Z,11.83
2017-03-15T01:51:43.491Z,11.75
2017-03-15T01:52:24.020Z,11.79
2017-03-15T01:53:04.560Z,11.75
2017-03-15T01:53:45.100Z,11.85
2017-03-15T01:54:25.630Z,11.79
2017-03-15T01:55:06.162Z,11.82
2017-03-15T01:55:46.696Z,11.91
2017-03-15T01:56:27.237Z,11.85
2017-03-15T01:57:07.776Z,11.91
2017-03-15T01:57:48.312Z,11.91
2017-03-15T01:58:28.852Z,11.88
2017-03-15T01:59:09.403Z,11.86
2017-03-15T01:59:49.945Z,11.86
2017-03-15T02:00:30.479Z,11.9
2017-03-15T02:01:11.011Z,11.94
2017-03-15T02:01:51.540Z,11.85
2017-03-15T02:02:32.079Z,11.85
2017-03-15T02:03:12.611Z,11.94
2017-03-15T02:03:53.149Z,11.9
2017-03-15T02:04:33.685Z,11.9
2017-03-15T02:05:14.216Z,11.94
2017-03-15T02:05:54.752Z,11.86
2017-03-15T02:06:35.285Z,11.95
2017-03-15T02:07:15.823Z,11.88
2017-03-15T02:07:56.359Z,11.9
2017-03-15T02:08:36.894Z,11.94
2017-03-15T02:09:17.427Z,11.85
2017-03-15T02:09:57.967Z,11.86
2017-03-15T02:10:38.508Z,11.94
2017-03-15T02:11:19.038Z,11.83
2017-03-15T02:11:59.575Z,11.8
2017-03-15T02:12:40.115Z,11.82
2017-03-15T02:13:20.655Z,11.8
2017-03-15T02:14:01.183Z,11.75
2017-03-15T02:14:41.714Z,11.83
2017-03-15T02:15:22.250Z,11.79
2017-03-15T02:16:02.788Z,11.76
2017-03-15T02:16:43.324Z,11.83
2017-03-15T02:17:23.862Z,11.78
2017-03-15T02:18:04.393Z,11.75
2017-03-15T02:18:44.930Z,11.79
2017-03-15T02:19:25.463Z,11.79
2017-03-15T02:20:05.992Z,11.75
2017-03-15T02:20:46.531Z,11.75
2017-03-15T02:21:27.072Z,11.75
2017-03-15T02:22:07.606Z,11.7
2017-03-15T02:22:48.138Z,11.75
2017-03-15T02:23:28.681Z,11.73
2017-03-15T02:24:09.217Z,11.69
2017-03-15T02:24:49.751Z,11.69
2017-03-15T02:25:30.283Z,11.69
2017-03-15T02:26:10.817Z,11.67
2017-03-15T02:26:51.353Z,11.73
2017-03-15T02:27:31.883Z,11.7
2017-03-15T02:28:12.423Z,11.75
2017-03-15T02:28:52.961Z,11.78
2017-03-15T02:29:33.506Z,11.75
2017-03-15T02:30:14.049Z,11.82
2017-03-15T02:30:54.587Z,11.79
2017-03-15T02:31:35.129Z,11.78
2017-03-15T02:32:15.659Z,11.75
2017-03-15T02:32:56.191Z,11.72
2017-03-15T02:33:36.723Z,11.69
2017-03-15T02:34:17.254Z,11.69
2017-03-15T02:34:57.792Z,11.7
2017-03-15T02:35:38.321Z,11.65
2017-03-15T02:36:18.860Z,11.67
2017-03-15T02:36:59.394Z,11.72
2017-03-15T02:37:39.927Z,11.69
2017-03-15T02:38:20.467Z,11.73
2017-03-15T02:39:01.007Z,11.69
2017-03-15T02:39:41.544Z,11.69
2017-03-15T02:40:22.079Z,11.73
2017-03-15T02:41:02.610Z,11.76
2017-03-15T02:41:43.145Z,11.76
2017-03-15T02:42:23.681Z,11.83
2017-03-15T02:43:04.220Z,11.67
2017-03-15T02:43:44.762Z,11.78
2017-03-15T02:44:25.291Z,11.78
2017-03-15T02:45:05.827Z,11.82
2017-03-15T02:45:46.356Z,11.76
2017-03-15T02:46:26.889Z,11.79
2017-03-15T02:47:07.427Z,11.82
2017-03-15T02:47:47.962Z,11.78
2017-03-15T02:48:28.509Z,11.7
2017-03-15T02:49:09.048Z,11.7
2017-03-15T02:49:49.583Z,11.72
2017-03-15T02:50:30.119Z,11.72
2017-03-15T02:51:10.654Z,11.73
2017-03-15T02:51:51.189Z,11.7
2017-03-15T02:52:31.724Z,11.73
2017-03-15T02:53:12.258Z,11.73
2017-03-15T02:53:52.796Z,11.75
2017-03-15T02:54:33.334Z,11.73
2017-03-15T02:55:13.862Z,11.73
2017-03-15T02:55:54.394Z,11.78
2017-03-15T02:56:34.932Z,11.78
2017-03-15T02:57:15.473Z,11.69
2017-03-15T02:57:56.008Z,11.73
2017-03-15T02:58:36.549Z,11.7
2017-03-15T02:59:17.086Z,11.64
2017-03-15T02:59:57.615Z,11.67
2017-03-15T03:00:38.147Z,11.7
2017-03-15T03:01:18.686Z,11.69
2017-03-15T03:01:59.224Z,11.67
2017-03-15T03:02:39.760Z,11.73
2017-03-15T03:03:20.301Z,11.73
2017-03-15T03:04:00.838Z,11.73
2017-03-15T03:04:41.368Z,11.76
2017-03-15T03:05:21.900Z,11.72
2017-03-15T03:06:02.433Z,11.73
2017-03-15T03:06:42.983Z,11.7
2017-03-15T03:07:23.517Z,11.65
2017-03-15T03:08:04.056Z,11.67
2017-03-15T03:08:44.593Z,11.67
2017-03-15T03:09:25.125Z,11.67
2017-03-15T03:10:05.659Z,11.6
2017-03-15T03:10:46.203Z,11.65
2017-03-15T03:11:26.740Z,11.69
2017-03-15T03:12:07.273Z,11.65
2017-03-15T03:12:47.805Z,11.73
2017-03-15T03:13:28.343Z,11.67
2017-03-15T03:14:08.877Z,11.73
2017-03-15T03:14:49.414Z,11.76
2017-03-15T03:15:29.948Z,11.69
2017-03-15T03:16:10.485Z,11.76
2017-03-15T03:16:51.024Z,11.7
2017-03-15T03:17:31.557Z,11.73
2017-03-15T03:18:12.086Z,11.73
2017-03-15T03:18:52.631Z,11.72
2017-03-15T03:19:33.164Z,11.7
2017-03-15T03:20:13.704Z,11.72
2017-03-15T03:20:54.240Z,11.67
2017-03-15T03:21:34.778Z,11.73
2017-03-15T03:22:15.317Z,11.62
2017-03-15T03:22:55.852Z,11.7
2017-03-15T03:23:36.391Z,11.76
2017-03-15T03:24:16.925Z,11.76
2017-03-15T03:24:57.456Z,11.7
2017-03-15T03:25:37.992Z,11.72
2017-03-15T03:26:18.531Z,11.7
2017-03-15T03:26:59.071Z,11.65
2017-03-15T03:27:39.608Z,11.73
2017-03-15T03:28:20.151Z,11.73
2017-03-15T03:29:00.691Z,11.73
2017-03-15T03:29:41.221Z,11.7
2017-03-15T03:30:21.756Z,11.64
2017-03-15T03:31:02.298Z,11.75
2017-03-15T03:31:42.834Z,11.69
2017-03-15T03:32:23.375Z,11.69
2017-03-15T03:33:03.910Z,11.67
2017-03-15T03:33:44.447Z,11.73
2017-03-15T03:34:24.981Z,11.78
2017-03-15T03:35:05.522Z,11.78
2017-03-15T03:35:46.050Z,11.64
2017-03-15T03:36:26.593Z,11.65
2017-03-15T03:37:07.128Z,11.72
2017-03-15T03:37:47.666Z,11.7
2017-03-15T03:38:28.203Z,11.7
2017-03-15T03:39:08.737Z,11.65
2017-03-15T03:39:49.274Z,11.65
2017-03-15T03:40:29.806Z,11.65
2017-03-15T03:41:10.343Z,11.6
2017-03-15T03:41:50.884Z,11.52
2017-03-15T03:42:31.427Z,11.54
2017-03-15T03:43:11.960Z,11.55
2017-03-15T03:43:52.492Z,11.49
2017-03-15T03:44:33.041Z,11.62
2017-03-15T03:45:13.581Z,11.54
2017-03-15T03:45:54.121Z,11.62
2017-03-15T03:46:34.659Z,11.49
2017-03-15T03:47:15.195Z,11.51
2017-03-15T03:47:55.731Z,11.52
2017-03-15T03:48:36.276Z,11.49
2017-03-15T03:49:16.796Z,11.52
2017-03-15T03:49:57.341Z,11.36
2017-03-15T03:50:37.875Z,11.52
2017-03-15T03:51:18.412Z,11.51
2017-03-15T03:51:58.946Z,11.42
2017-03-15T03:52:39.482Z,11.39
2017-03-15T03:53:20.012Z,11.47
2017-03-15T03:54:00.550Z,11.37
2017-03-15T03:54:41.087Z,11.42
2017-03-15T03:55:21.631Z,11.37
2017-03-15T03:56:02.166Z,11.43
2017-03-15T03:56:42.702Z,11.4
2017-03-15T03:57:23.237Z,11.44
2017-03-15T03:58:03.771Z,11.42
2017-03-15T03:58:44.304Z,11.35
2017-03-15T03:59:24.830Z,11.33
2017-03-15T04:00:05.370Z,11.42
2017-03-15T04:00:45.982Z,11.33
2017-03-15T04:01:26.515Z,11.39
2017-03-15T04:02:07.047Z,11.36
2017-03-15T04:02:47.596Z,11.4
2017-03-15T04:03:28.133Z,11.35
2017-03-15T04:04:08.675Z,11.35
2017-03-15T04:04:49.215Z,11.36
2017-03-15T04:05:29.756Z,11.37
2017-03-15T04:06:10.292Z,11.37
2017-03-15T04:06:50.829Z,11.4
2017-03-15T04:07:31.362Z,11.36
2017-03-15T04:08:11.902Z,11.39
2017-03-15T04:08:52.441Z,11.44
2017-03-15T04:09:32.983Z,11.42
2017-03-15T04:10:13.521Z,11.32
2017-03-15T04:10:54.061Z,11.42
2017-03-15T04:11:34.620Z,11.39
2017-03-15T04:12:15.161Z,11.35
2017-03-15T04:12:55.702Z,11.47
2017-03-15T04:13:36.229Z,11.33
2017-03-15T04:14:16.800Z,11.37
2017-03-15T04:14:57.336Z,11.37
2017-03-15T04:15:37.871Z,11.39
2017-03-15T04:16:18.410Z,11.42
2017-03-15T04:16:58.958Z,11.43
2017-03-15T04:17:39.486Z,11.36
2017-03-15T04:18:20.076Z,11.4
2017-03-15T04:19:00.616Z,11.42
2017-03-15T04:19:41.150Z,11.46
2017-03-15T04:20:21.690Z,11.43
2017-03-15T04:21:02.228Z,11.46
2017-03-15T04:21:42.755Z,11.43
2017-03-15T04:22:23.295Z,11.39
2017-03-15T04:23:03.833Z,11.42
2017-03-15T04:23:44.364Z,11.39
2017-03-15T04:24:24.896Z,11.37
2017-03-15T04:25:05.430Z,11.35
2017-03-15T04:25:45.965Z,11.43
2017-03-15T04:26:26.502Z,11.4
2017-03-15T04:27:07.039Z,11.36
2017-03-15T04:27:47.574Z,11.39
2017-03-15T04:28:28.141Z,11.37
2017-03-15T04:29:08.676Z,11.42
2017-03-15T04:29:49.211Z,11.39
2017-03-15T04:30:29.755Z,11.4
2017-03-15T04:31:10.304Z,11.39
2017-03-15T04:31:50.909Z,11.36
2017-03-15T04:32:31.492Z,11.43
2017-03-15T04:33:12.031Z,11.39
2017-03-15T04:33:52.574Z,11.52
2017-03-15T04:34:33.108Z,11.39
2017-03-15T04:35:13.641Z,11.39
2017-03-15T04:35:54.185Z,11.33
2017-03-15T04:36:34.713Z,11.4
2017-03-15T04:37:15.248Z,11.36
2017-03-15T04:37:55.776Z,11.42
2017-03-15T04:38:36.308Z,11.47
2017-03-15T04:39:16.841Z,11.49
2017-03-15T04:39:57.375Z,11.52
2017-03-15T04:40:37.909Z,11.43
2017-03-15T04:41:18.445Z,11.54
2017-03-15T04:41:58.983Z,11.52
2017-03-15T04:42:39.528Z,11.54
2017-03-15T04:43:20.036Z,11.37
2017-03-15T04:44:00.577Z,11.43
2017-03-15T04:44:41.117Z,11.49
2017-03-15T04:45:21.655Z,11.52
2017-03-15T04:46:02.192Z,11.36
2017-03-15T04:46:42.729Z,11.39
2017-03-15T04:47:23.269Z,11.37
2017-03-15T04:48:03.790Z,11.46
2017-03-15T04:48:44.339Z,11.39
2017-03-15T04:49:24.878Z,11.36
2017-03-15T04:50:05.453Z,11.46
2017-03-15T04:50:45.996Z,11.39
2017-03-15T04:51:26.533Z,11.4
2017-03-15T04:52:07.069Z,11.37
2017-03-15T04:52:47.645Z,11.39
2017-03-15T04:53:28.185Z,11.42
2017-03-15T04:54:08.723Z,11.35
2017-03-15T04:54:49.258Z,11.42
2017-03-15T04:55:29.792Z,11.44
2017-03-15T04:56:10.329Z,11.39
2017-03-15T04:56:50.870Z,11.42
2017-03-15T04:57:31.407Z,11.4
2017-03-15T04:58:11.940Z,11.46
2017-03-15T04:58:52.477Z,11.39
2017-03-15T04:59:33.013Z,11.4
2017-03-15T05:00:13.555Z,11.39
2017-03-15T05:00:54.095Z,11.46
2017-03-15T05:01:34.635Z,11.4
2017-03-15T05:02:15.165Z,11.4
2017-03-15T05:02:55.704Z,11.42
2017-03-15T05:03:36.230Z,11.4
2017-03-15T05:04:16.767Z,11.37
2017-03-15T05:04:57.311Z,11.4
2017-03-15T05:05:37.851Z,11.44
2017-03-15T05:06:18.385Z,11.43
2017-03-15T05:06:58.917Z,11.44
2017-03-15T05:07:39.453Z,11.37
2017-03-15T05:08:19.986Z,11.46
2017-03-15T05:09:00.518Z,11.42
2017-03-15T05:09:41.055Z,11.39
2017-03-15T05:10:21.588Z,11.46
2017-03-15T05:11:02.121Z,11.52
2017-03-15T05:11:42.674Z,11.49
2017-03-15T05:12:23.197Z,11.43
2017-03-15T05:13:03.741Z,11.54
2017-03-15T05:13:44.287Z,11.46
2017-03-15T05:14:24.831Z,11.47
2017-03-15T05:15:05.369Z,11.52
2017-03-15T05:15:45.911Z,11.52
2017-03-15T05:16:26.443Z,11.51
2017-03-15T05:17:06.976Z,11.36
2017-03-15T05:17:47.587Z,11.52
2017-03-15T05:18:28.126Z,11.39
2017-03-15T05:19:08.661Z,11.55
2017-03-15T05:19:49.193Z,11.51
2017-03-15T05:20:29.739Z,11.49
2017-03-15T05:21:10.278Z,11.47
2017-03-15T05:21:50.819Z,11.46
2017-03-15T05:22:31.348Z,11.47
2017-03-15T05:23:12.055Z,11.52
2017-03-15T05:23:52.560Z,11.54
2017-03-15T05:24:33.058Z,11.55
2017-03-15T05:25:13.582Z,11.54
2017-03-15T05:25:54.124Z,11.52
2017-03-15T05:26:34.644Z,11.51
2017-03-15T05:27:15.627Z,11.42
2017-03-15T05:27:56.205Z,11.37
2017-03-15T05:28:36.739Z,11.37
2017-03-15T05:29:17.278Z,11.36
2017-03-15T05:29:57.818Z,11.36
2017-03-15T05:30:38.346Z,11.36
2017-03-15T05:31:18.893Z,11.39
2017-03-15T05:31:59.437Z,11.52
2017-03-15T05:32:39.977Z,11.39
2017-03-15T05:33:20.534Z,11.42
2017-03-15T05:34:01.070Z,11.4
2017-03-15T05:34:41.607Z,11.4
2017-03-15T05:35:22.146Z,11.36
2017-03-15T05:36:02.683Z,11.39
2017-03-15T05:36:43.218Z,11.52
2017-03-15T05:37:23.757Z,11.43
2017-03-15T05:38:04.294Z,11.52
2017-03-15T05:38:44.824Z,11.4
2017-03-15T05:39:25.370Z,11.36
2017-03-15T05:40:05.910Z,11.43
2017-03-15T05:40:46.461Z,11.42
2017-03-15T05:41:26.989Z,11.42
2017-03-15T05:42:07.518Z,11.39
2017-03-15T05:42:48.055Z,11.43
2017-03-15T05:43:28.593Z,11.39
2017-03-15T05:44:09.131Z,11.4
2017-03-15T05:44:49.667Z,11.39
2017-03-15T05:45:30.192Z,11.33
2017-03-15T05:46:10.734Z,11.33
2017-03-15T05:46:51.272Z,11.37
2017-03-15T05:47:31.812Z,11.33
2017-03-15T05:48:12.411Z,11.39
2017-03-15T05:48:52.955Z,11.33
2017-03-15T05:49:33.536Z,11.35
2017-03-15T05:50:14.068Z,11.35
2017-03-15T05:50:54.599Z,11.37
2017-03-15T05:51:35.137Z,11.25
2017-03-15T05:52:15.676Z,11.33
2017-03-15T05:52:56.216Z,11.28
2017-03-15T05:53:36.757Z,11.27
2017-03-15T05:54:17.295Z,11.36
2017-03-15T05:54:57.829Z,11.25
2017-03-15T05:55:38.383Z,11.36
2017-03-15T05:56:18.896Z,11.35
2017-03-15T05:56:59.433Z,11.32
2017-03-15T05:57:39.974Z,11.28
2017-03-15T05:58:20.510Z,11.35
2017-03-15T05:59:01.045Z,11.33
2017-03-15T05:59:41.577Z,11.35
2017-03-15T06:00:22.114Z,11.27
2017-03-15T06:01:02.643Z,11.36
2017-03-15T06:01:43.175Z,11.27
2017-03-15T06:02:23.723Z,11.27
2017-03-15T06:03:04.258Z,11.33
2017-03-15T06:03:44.789Z,11.28
2017-03-15T06:04:25.328Z,11.36
2017-03-15T06:05:05.862Z,11.24
2017-03-15T06:05:46.398Z,11.27
2017-03-15T06:06:26.933Z,11.28
2017-03-15T06:07:07.467Z,11.21
2017-03-15T06:07:48.006Z,11.21
2017-03-15T06:08:28.543Z,11.19
2017-03-15T06:09:09.074Z,11.19
2017-03-15T06:09:49.606Z,11.21
2017-03-15T06:10:30.141Z,11.24
2017-03-15T06:11:10.681Z,11.28
2017-03-15T06:11:51.214Z,11.24
2017-03-15T06:12:31.779Z,11.17
2017-03-15T06:13:12.322Z,11.28
2017-03-15T06:13:52.851Z,11.22
2017-03-15T06:14:33.392Z,11.22
2017-03-15T06:15:13.927Z,11.25
2017-03-15T06:15:54.463Z,11.19
2017-03-15T06:16:34.993Z,11.21
2017-03-15T06:17:15.570Z,11.17
2017-03-15T06:17:56.135Z,11.24
2017-03-15T06:18:37.076Z,11.21
2017-03-15T06:19:19.226Z,11.17
2017-03-15T06:19:59.753Z,11.19
2017-03-15T06:20:40.289Z,11.27
2017-03-15T06:21:20.824Z,11.22
2017-03-15T06:22:01.358Z,11.25
2017-03-15T06:22:41.896Z,11.25
2017-03-15T06:23:22.437Z,11.15
2017-03-15T06:24:02.960Z,11.24
2017-03-15T06:24:43.514Z,11.25
2017-03-15T06:25:24.046Z,11.1
2017-03-15T06:26:04.578Z,11.25
2017-03-15T06:26:45.112Z,11.21
2017-03-15T06:27:25.641Z,11.21
2017-03-15T06:28:06.176Z,11.15
2017-03-15T06:28:46.708Z,11.14
2017-03-15T06:29:27.241Z,11.11
2017-03-15T06:30:07.778Z,11.25
2017-03-15T06:30:48.320Z,11.24
2017-03-15T06:31:28.868Z,11.22
2017-03-15T06:32:09.431Z,11.18
2017-03-15T06:32:49.974Z,11.19
2017-03-15T06:33:30.521Z,11.21
2017-03-15T06:34:11.047Z,11.15
2017-03-15T06:34:51.585Z,11.21
2017-03-15T06:36:45.615Z,11.18
2017-03-15T06:37:26.149Z,11.19
2017-03-15T06:38:06.682Z,11.24
2017-03-15T06:38:47.214Z,11.24
2017-03-15T06:39:27.746Z,11.15
2017-03-15T06:40:08.275Z,11.17
2017-03-15T06:40:48.805Z,11.21
2017-03-15T06:41:29.331Z,11.27
2017-03-15T06:42:09.858Z,11.24
2017-03-15T06:42:50.479Z,11.24
2017-03-15T06:43:31.029Z,11.29
2017-03-15T06:44:11.564Z,11.24
2017-03-15T06:44:52.102Z,11.33
2017-03-15T06:45:32.633Z,11.35
2017-03-15T06:46:13.172Z,11.29
2017-03-15T06:46:53.702Z,11.33
2017-03-15T06:47:34.226Z,11.33
2017-03-15T06:48:14.751Z,11.28
2017-03-15T06:48:55.294Z,11.33
2017-03-15T06:49:35.826Z,11.37
2017-03-15T06:50:16.360Z,11.35
2017-03-15T06:50:56.887Z,11.28
2017-03-15T06:51:37.420Z,11.32
2017-03-15T06:52:17.958Z,11.27
2017-03-15T06:52:58.489Z,11.35
2017-03-15T06:53:39.018Z,11.36
2017-03-15T06:54:19.706Z,11.35
2017-03-15T06:55:00.478Z,11.29
2017-03-15T06:55:41.019Z,11.37
2017-03-15T06:56:21.549Z,11.35
2017-03-15T06:57:02.083Z,11.32
2017-03-15T06:57:42.613Z,11.4
2017-03-15T06:58:23.155Z,11.39
2017-03-15T06:59:03.672Z,11.36
2017-03-15T06:59:44.204Z,11.33
2017-03-15T07:00:24.740Z,11.42
2017-03-15T07:01:05.271Z,11.42
2017-03-15T07:01:45.797Z,11.39
2017-03-15T07:02:26.348Z,11.42
2017-03-15T07:03:06.873Z,11.39
2017-03-15T07:03:47.410Z,11.37
2017-03-15T07:04:27.942Z,11.43
2017-03-15T07:05:08.476Z,11.39
2017-03-15T07:05:49.014Z,11.36
2017-03-15T07:06:29.547Z,11.35
2017-03-15T07:07:10.083Z,11.32
2017-03-15T07:07:50.616Z,11.22
2017-03-15T07:08:31.155Z,11.29
2017-03-15T07:09:11.694Z,11.33
2017-03-15T07:09:52.222Z,11.25
2017-03-15T07:10:32.756Z,11.32
2017-03-15T07:11:13.284Z,11.44
2017-03-15T07:11:53.819Z,11.39
2017-03-15T07:12:34.357Z,11.42
2017-03-15T07:13:14.914Z,11.42
2017-03-15T07:13:55.448Z,11.37
2017-03-15T07:14:35.971Z,11.37
2017-03-15T07:15:16.504Z,11.36
2017-03-15T07:15:57.042Z,11.42
2017-03-15T07:16:37.583Z,11.39
2017-03-15T07:17:18.121Z,11.36
2017-03-15T07:17:58.664Z,11.43
2017-03-15T07:18:39.197Z,11.36
2017-03-15T07:19:19.724Z,11.32
2017-03-15T07:20:00.255Z,11.43
2017-03-15T07:20:40.788Z,11.42
2017-03-15T07:21:21.328Z,11.4
2017-03-15T07:22:01.866Z,11.43
2017-03-15T07:22:42.403Z,11.42
2017-03-15T07:23:22.934Z,11.44
2017-03-15T07:24:03.476Z,11.51
2017-03-15T07:24:44.017Z,11.49
2017-03-15T07:25:24.551Z,11.51
2017-03-15T07:26:05.081Z,11.51
2017-03-15T07:26:45.618Z,11.57
2017-03-15T07:27:26.160Z,11.52
2017-03-15T07:28:06.695Z,11.51
2017-03-15T07:28:47.229Z,11.64
2017-03-15T07:29:27.750Z,11.65
2017-03-15T07:30:08.294Z,11.65
2017-03-15T07:30:48.832Z,11.67
2017-03-15T07:31:29.371Z,11.75
2017-03-15T07:32:09.914Z,11.73
2017-03-15T07:32:50.452Z,11.69
2017-03-15T07:33:30.976Z,11.75
2017-03-15T07:34:11.576Z,11.78
2017-03-15T07:34:52.114Z,11.79
2017-03-15T07:35:32.644Z,11.79
2017-03-15T07:36:13.176Z,11.8
2017-03-15T07:36:53.723Z,11.82
2017-03-15T07:37:34.251Z,11.85
2017-03-15T07:38:14.785Z,11.83
2017-03-15T07:38:55.323Z,11.79
2017-03-15T07:39:35.852Z,11.85
2017-03-15T07:40:16.386Z,11.78
2017-03-15T07:40:56.960Z,11.79
2017-03-15T07:41:37.493Z,11.75
2017-03-15T07:42:18.028Z,11.73
2017-03-15T07:42:58.568Z,11.76
2017-03-15T07:43:39.109Z,11.72
2017-03-15T07:44:19.645Z,11.76
2017-03-15T07:45:00.185Z,11.69
2017-03-15T07:45:40.755Z,11.73
2017-03-15T07:46:21.254Z,11.61
2017-03-15T07:47:01.780Z,11.64
2017-03-15T07:47:42.295Z,11.62
2017-03-15T07:48:22.839Z,11.52
2017-03-15T07:49:03.368Z,11.51
2017-03-15T07:49:43.994Z,11.55
2017-03-15T07:50:24.535Z,11.52
2017-03-15T07:51:05.066Z,11.62
2017-03-15T07:51:45.602Z,11.58
2017-03-15T07:52:26.141Z,11.65
2017-03-15T07:53:06.682Z,11.55
2017-03-15T07:53:47.208Z,11.6
2017-03-15T07:54:27.741Z,11.51
2017-03-15T07:55:08.273Z,11.52
2017-03-15T07:55:48.819Z,11.49
2017-03-15T07:56:29.357Z,11.49
2017-03-15T07:57:09.898Z,11.54
2017-03-15T07:57:50.440Z,11.52
2017-03-15T07:58:30.977Z,11.55
2017-03-15T07:59:11.511Z,11.47
2017-03-15T07:59:52.051Z,11.61
2017-03-15T08:00:32.579Z,11.58
2017-03-15T08:01:13.112Z,11.54
2017-03-15T08:01:53.649Z,11.57
2017-03-15T08:02:34.184Z,11.51
2017-03-15T08:03:14.716Z,11.55
2017-03-15T08:03:55.254Z,11.58
2017-03-15T08:04:35.794Z,11.58
2017-03-15T08:05:16.322Z,11.52
2017-03-15T08:05:56.856Z,11.55
2017-03-15T08:06:37.421Z,11.54
2017-03-15T08:07:17.928Z,11.52
2017-03-15T08:07:58.460Z,11.54
2017-03-15T08:08:38.997Z,11.49
2017-03-15T08:09:19.526Z,11.62
2017-03-15T08:10:00.059Z,11.55
2017-03-15T08:10:40.597Z,11.52
2017-03-15T08:11:21.132Z,11.49
2017-03-15T08:12:01.663Z,11.61
2017-03-15T08:12:42.194Z,11.54
2017-03-15T08:13:22.729Z,11.51
2017-03-15T08:14:03.261Z,11.51
2017-03-15T08:14:43.796Z,11.61
2017-03-15T08:15:24.331Z,11.64
2017-03-15T08:16:04.863Z,11.62
2017-03-15T08:16:45.395Z,11.51
2017-03-15T08:17:25.931Z,11.58
2017-03-15T08:18:06.465Z,11.47
2017-03-15T08:18:47.002Z,11.51
2017-03-15T08:19:27.529Z,11.51
2017-03-15T08:20:08.067Z,11.47
2017-03-15T08:20:48.597Z,11.49
2017-03-15T08:21:29.133Z,11.55
2017-03-15T08:22:09.667Z,11.64
2017-03-15T08:22:50.201Z,11.62
2017-03-15T08:23:30.730Z,11.65
2017-03-15T08:24:11.266Z,11.72
2017-03-15T08:24:51.798Z,11.76
2017-03-15T08:25:32.326Z,11.79
2017-03-15T08:26:12.865Z,11.94
2017-03-15T08:26:53.402Z,11.9
2017-03-15T08:27:33.938Z,11.91
2017-03-15T08:28:14.462Z,12.04
2017-03-15T08:28:54.993Z,12.01
2017-03-15T08:29:35.526Z,12.04
2017-03-15T08:30:16.065Z,12.1
2017-03-15T08:30:56.593Z,12.04
2017-03-15T08:31:37.126Z,12.2
2017-03-15T08:32:17.664Z,12.16
2017-03-15T08:32:58.194Z,12.13
2017-03-15T08:33:38.730Z,12.23
2017-03-15T08:34:19.262Z,12.21
2017-03-15T08:34:59.797Z,12.27
2017-03-15T08:35:40.327Z,12.2
2017-03-15T08:36:20.858Z,12.27
2017-03-15T08:37:01.407Z,12.32
2017-03-15T08:37:41.946Z,12.34
2017-03-15T08:38:22.488Z,12.35
2017-03-15T08:39:03.041Z,12.37
2017-03-15T08:39:43.575Z,12.46
2017-03-15T08:40:24.114Z,12.46
2017-03-15T08:41:04.635Z,12.46
2017-03-15T08:41:45.172Z,12.54
2017-03-15T08:42:25.701Z,12.52
2017-03-15T08:43:06.236Z,12.59
2017-03-15T08:43:46.778Z,12.65
2017-03-15T08:44:27.319Z,12.67
2017-03-15T08:45:07.853Z,12.64